AirNav   Air Wisconsin Up To $57,000 Bonus
 
 1657 users online  

MO12 St Lukes Hospital West Heliport
Chesterfield, Missouri, USA

GOING TO CHESTERFIELD?


FAA INFORMATION EFFECTIVE 02 JANUARY 2020

Location

FAA Identifier: MO12
Lat/Long: 38-39-01.0300N 090-30-11.5500W
38-39.017167N 090-30.192500W
38.6502861,-90.5032083
(estimated)
Elevation: 505 ft. / 154 m (estimated)
Variation: 02E (1985)
From city: 8 miles W of CHESTERFIELD, MO
Time zone: UTC -6 (UTC -5 during Daylight Saving Time)
Zip code: 63017

Heliport Operations

Heliport use: Private use, MEDICAL USE.
Activation date: 04/1991
Control tower: no
ARTCC: KANSAS CITY CENTER
FSS: SAINT LOUIS FLIGHT SERVICE STATION
Attendance: CONTINUOUS
Segmented circle: no
Lights: FOR PERIMETER LGTS CALL 314-434-1500.

Heliport Communications

WX ASOS at SUS (7 nm W): 134.8 (314-890-7255)
WX ASOS at STL (9 nm NE): 125.025 (314-890-4790)
WX ASOS at CPS (17 nm E): PHONE 618-332-0001
WX ASOS at SET (17 nm N): 118.075 (636-250-4590)

Nearby radio navigation aids

VOR radial/distance  VOR name  Freq  Var
STLr183/12.7ST LOUIS VORTAC117.4001E
FTZr092/22.1FORISTELL VORTAC110.8005E
TOYr255/27.9TROY VORTAC116.0004E

 
NDB name  Hdg/Dist  Freq  Var  ID
EAVES129/2.622701WFZ ..-. --..
OBLIO189/9.133801WLM .-.. --
SNOOP088/12.432601WSU ... ..-
ZUMAY233/13.440401WST ... -
CIVIC MEMORIAL236/25.526301WCVM -.-. ...- --

Heliport Services

Runway Information

Helipad H1

Dimensions: 35 x 35 ft. / 11 x 11 m
Surface: asphalt
Runway edge lights: PERI
Operational restrictions: APCH AND DEP PATH FROM 040 TO 170 DEGREES AND FROM 270 TO 300 DEGREES.
Latitude: 38-39.017167N
Longitude: 090-30.192500W
Elevation: 505.0 ft.
Traffic pattern: leftleft

Heliport Ownership and Management from official FAA records

Ownership: Privately-owned
Owner: ST LUKES HOSPITAL & DEVELOP C
232 SOUTH WOODSMILL ROAD
CHESTERFIELD, MO 63017
Phone 314-434-1500
EXT. 4452
Manager: RON BIRDSONG
232 SOUTH WOODMILL ROAD
CHESTERFIELD, MO 63017
Phone 314-205-6166

Heliport Operational Statistics

Aircraft based on the field: 1
Helicopters: 1
    

Additional Remarks

OWNER DESIRES ARPT NOT BE CHARTED.
FOR CD CTC ST LOUIS APCH AT 314-890-1018.

Instrument Procedures

There are no published instrument procedures at MO12.

Some nearby airports with instrument procedures:

1H0 - Creve Coeur Airport (5 nm N)
KSUS - Spirit of St Louis Airport (7 nm W)
KSTL - St Louis Lambert International Airport (9 nm NE)
KCPS - St Louis Downtown Airport (17 nm E)
KSET - St Charles County Smartt Airport (17 nm N)
 
Loc | Ops | Rwys | IFR | FBO | Links
Com | Nav | Svcs | Stats | Notes

Kansas City Aviation Department
 
Area around MO12 (St Lukes Hospital West Heliport)
 
Road maps at: MapQuest Bing Google
 
Aerial photo
No photo
 
Sectional chart

 
Airport distance calculator
Flying to St Lukes Hospital West Heliport? Find the distance to fly.

From to MO12

Sunrise and sunset
Times for 21-Jan-2020
 Local
(UTC-6)
 Zulu
(UTC)
Morning civil twilight06:4812:48
Sunrise07:1713:17
Sunset17:1023:10
Evening civil twilight17:3923:39

Current date and time
Zulu (UTC)  21-Jan-2020 16:18:36
Local (UTC-6)  21-Jan-2020 10:18:36
 
METAR
KSUS 
7nm W 
211554Z 00000KT 6SM HZ BKN011 M04/M07 A3065 RMK AO2 SLP393 T10441072
KSTL 
9nm NE 
211602Z 23004KT 8SM SCT010 M04/M08 A3065 RMK AO2 T10441078
KSET 
17nm N 
211554Z AUTO 17005KT 8SM OVC009 M06/M08 A3066 RMK AO2 SLP389 T10611078 PNO $
KCPS 
17nm E 
211601Z 12004KT 4SM HZ SCT011 M05/M08 A3067 RMK AO2 T10501083
TAF
KSUS 
7nm W 
211130Z 2112/2212 VRB04KT P6SM OVC012 FM211600 16007KT P6SM SCT020 FM212300 17006KT P6SM FEW250
KSTL 
9nm NE 
211130Z 2112/2218 VRB04KT P6SM OVC012 TEMPO 2112/2114 BKN008 FM211600 16007KT P6SM SCT020 FM212300 17006KT P6SM FEW250
KCPS 
17nm E 
211130Z 2112/2212 VRB04KT P6SM OVC012 TEMPO 2112/2114 5SM BR BKN009 FM211600 16007KT P6SM SCT020 FM212300 17006KT P6SM FEW250
NOTAMs
Click for the latest NOTAMs
NOTAMs are issued by the DoD/FAA and will open in a separate window not controlled by AirNav.

 

 
 

Would you like to see your business listed on this page?

 If your business provides an interesting product or service to pilots, flight crews, aircraft, or users of the St Lukes Hospital West Heliport, you should consider listing it here.  To start the listing process, click on the button below
 
Add a business
 

Other Pages about St Lukes Hospital West Heliport

Update a link
 
Copyright © AirNav, LLC. All rights reserved. Privacy Policy  Contact